sensor_id;sensor_type;location;lat;lon;timestamp;P1;durP1;ratioP1;P2;durP2;ratioP2
24813;SDS011;12904;50.088;11.414;2022-08-03T00:02:15;4.00;;;3.53;;
24813;SDS011;12904;50.088;11.414;2022-08-03T00:04:41;7.75;;;3.42;;
24813;SDS011;12904;50.088;11.414;2022-08-03T00:07:06;5.78;;;3.75;;
24813;SDS011;12904;50.088;11.414;2022-08-03T00:09:32;4.88;;;3.60;;
24813;SDS011;12904;50.088;11.414;2022-08-03T00:12:01;4.38;;;3.90;;
24813;SDS011;12904;50.088;11.414;2022-08-03T00:14:26;5.65;;;3.33;;
24813;SDS011;12904;50.088;11.414;2022-08-03T00:16:52;4.65;;;3.90;;
24813;SDS011;12904;50.088;11.414;2022-08-03T00:19:18;4.35;;;3.95;;
24813;SDS011;12904;50.088;11.414;2022-08-03T00:21:43;5.22;;;3.60;;
24813;SDS011;12904;50.088;11.414;2022-08-03T00:24:09;5.10;;;3.97;;
24813;SDS011;12904;50.088;11.414;2022-08-03T00:26:35;5.35;;;3.60;;
24813;SDS011;12904;50.088;11.414;2022-08-03T00:29:00;3.97;;;3.63;;
24813;SDS011;12904;50.088;11.414;2022-08-03T00:31:26;5.25;;;4.22;;
24813;SDS011;12904;50.088;11.414;2022-08-03T00:33:52;6.78;;;4.35;;
24813;SDS011;12904;50.088;11.414;2022-08-03T00:36:17;8.13;;;4.20;;
24813;SDS011;12904;50.088;11.414;2022-08-03T00:38:43;4.72;;;3.63;;
24813;SDS011;12904;50.088;11.414;2022-08-03T00:41:09;4.75;;;4.05;;
24813;SDS011;12904;50.088;11.414;2022-08-03T00:43:34;6.82;;;4.53;;
24813;SDS011;12904;50.088;11.414;2022-08-03T00:46:00;4.32;;;3.92;;
24813;SDS011;12904;50.088;11.414;2022-08-03T00:48:26;4.10;;;3.80;;
24813;SDS011;12904;50.088;11.414;2022-08-03T00:50:51;5.25;;;4.22;;
24813;SDS011;12904;50.088;11.414;2022-08-03T00:53:18;4.60;;;4.30;;
24813;SDS011;12904;50.088;11.414;2022-08-03T00:55:44;4.53;;;4.10;;
24813;SDS011;12904;50.088;11.414;2022-08-03T00:58:10;8.50;;;4.82;;
24813;SDS011;12904;50.088;11.414;2022-08-03T01:00:36;5.38;;;4.95;;
24813;SDS011;12904;50.088;11.414;2022-08-03T01:03:04;4.68;;;4.25;;
24813;SDS011;12904;50.088;11.414;2022-08-03T01:05:32;4.57;;;4.20;;
24813;SDS011;12904;50.088;11.414;2022-08-03T01:08:10;7.03;;;4.10;;
24813;SDS011;12904;50.088;11.414;2022-08-03T01:11:18;4.13;;;3.83;;
24813;SDS011;12904;50.088;11.414;2022-08-03T01:14:20;5.47;;;4.82;;
24813;SDS011;12904;50.088;11.414;2022-08-03T01:19:45;5.70;;;4.53;;
24813;SDS011;12904;50.088;11.414;2022-08-03T01:30:36;6.10;;;3.95;;
24813;SDS011;12904;50.088;11.414;2022-08-03T01:33:11;4.53;;;4.10;;
24813;SDS011;12904;50.088;11.414;2022-08-03T01:35:46;8.05;;;5.05;;
24813;SDS011;12904;50.088;11.414;2022-08-03T01:38:17;5.75;;;5.10;;
24813;SDS011;12904;50.088;11.414;2022-08-03T01:40:48;6.25;;;4.75;;
24813;SDS011;12904;50.088;11.414;2022-08-03T01:43:18;5.93;;;5.43;;
24813;SDS011;12904;50.088;11.414;2022-08-03T01:45:47;6.05;;;5.53;;
24813;SDS011;12904;50.088;11.414;2022-08-03T01:48:15;5.75;;;5.25;;
24813;SDS011;12904;50.088;11.414;2022-08-03T01:50:42;5.78;;;5.18;;
24813;SDS011;12904;50.088;11.414;2022-08-03T01:53:12;6.88;;;5.30;;
24813;SDS011;12904;50.088;11.414;2022-08-03T01:55:41;12.30;;;5.88;;
24813;SDS011;12904;50.088;11.414;2022-08-03T01:58:12;6.67;;;5.97;;
24813;SDS011;12904;50.088;11.414;2022-08-03T02:00:40;5.90;;;5.35;;
24813;SDS011;12904;50.088;11.414;2022-08-03T02:03:07;5.93;;;5.50;;
24813;SDS011;12904;50.088;11.414;2022-08-03T02:05:37;5.72;;;5.32;;
24813;SDS011;12904;50.088;11.414;2022-08-03T02:08:05;7.38;;;5.03;;
24813;SDS011;12904;50.088;11.414;2022-08-03T02:10:33;6.38;;;5.90;;
24813;SDS011;12904;50.088;11.414;2022-08-03T02:13:02;7.18;;;6.55;;
24813;SDS011;12904;50.088;11.414;2022-08-03T02:15:29;6.68;;;6.13;;
24813;SDS011;12904;50.088;11.414;2022-08-03T02:17:57;6.82;;;6.25;;
24813;SDS011;12904;50.088;11.414;2022-08-03T02:20:25;6.95;;;6.35;;
24813;SDS011;12904;50.088;11.414;2022-08-03T02:22:52;6.18;;;5.70;;
24813;SDS011;12904;50.088;11.414;2022-08-03T02:25:18;6.00;;;5.60;;
24813;SDS011;12904;50.088;11.414;2022-08-03T02:28:05;6.97;;;6.28;;
24813;SDS011;12904;50.088;11.414;2022-08-03T02:30:33;6.18;;;5.43;;
24813;SDS011;12904;50.088;11.414;2022-08-03T02:33:03;7.97;;;5.68;;
24813;SDS011;12904;50.088;11.414;2022-08-03T02:35:31;5.85;;;5.25;;
24813;SDS011;12904;50.088;11.414;2022-08-03T02:38:00;6.25;;;5.68;;
24813;SDS011;12904;50.088;11.414;2022-08-03T02:40:28;6.68;;;6.07;;
24813;SDS011;12904;50.088;11.414;2022-08-03T02:43:01;5.93;;;5.53;;
24813;SDS011;12904;50.088;11.414;2022-08-03T02:45:31;6.93;;;6.18;;
24813;SDS011;12904;50.088;11.414;2022-08-03T02:48:02;5.88;;;5.47;;
24813;SDS011;12904;50.088;11.414;2022-08-03T02:50:29;6.38;;;5.88;;
24813;SDS011;12904;50.088;11.414;2022-08-03T02:52:57;7.25;;;5.55;;
24813;SDS011;12904;50.088;11.414;2022-08-03T02:55:25;6.40;;;5.80;;
24813;SDS011;12904;50.088;11.414;2022-08-03T02:57:53;7.20;;;6.50;;
24813;SDS011;12904;50.088;11.414;2022-08-03T03:00:21;6.03;;;5.43;;
24813;SDS011;12904;50.088;11.414;2022-08-03T03:02:48;6.05;;;5.55;;
24813;SDS011;12904;50.088;11.414;2022-08-03T03:05:14;6.78;;;6.18;;
24813;SDS011;12904;50.088;11.414;2022-08-03T03:07:41;6.60;;;5.97;;
24813;SDS011;12904;50.088;11.414;2022-08-03T03:10:07;6.38;;;5.88;;
24813;SDS011;12904;50.088;11.414;2022-08-03T03:12:34;6.47;;;5.85;;
24813;SDS011;12904;50.088;11.414;2022-08-03T03:15:02;6.63;;;6.10;;
24813;SDS011;12904;50.088;11.414;2022-08-03T03:17:30;6.38;;;5.75;;
24813;SDS011;12904;50.088;11.414;2022-08-03T03:19:57;6.13;;;5.63;;
24813;SDS011;12904;50.088;11.414;2022-08-03T03:22:24;7.15;;;6.55;;
24813;SDS011;12904;50.088;11.414;2022-08-03T03:24:51;9.60;;;6.78;;
24813;SDS011;12904;50.088;11.414;2022-08-03T03:27:18;7.25;;;6.63;;
24813;SDS011;12904;50.088;11.414;2022-08-03T03:29:45;6.93;;;6.43;;
24813;SDS011;12904;50.088;11.414;2022-08-03T03:32:11;7.55;;;6.97;;
24813;SDS011;12904;50.088;11.414;2022-08-03T03:34:37;7.05;;;6.45;;
24813;SDS011;12904;50.088;11.414;2022-08-03T03:37:03;7.25;;;6.65;;
24813;SDS011;12904;50.088;11.414;2022-08-03T03:39:29;7.90;;;7.40;;
24813;SDS011;12904;50.088;11.414;2022-08-03T03:41:55;6.88;;;6.38;;
24813;SDS011;12904;50.088;11.414;2022-08-03T03:44:25;7.10;;;6.60;;
24813;SDS011;12904;50.088;11.414;2022-08-03T03:46:52;7.85;;;7.00;;
24813;SDS011;12904;50.088;11.414;2022-08-03T03:49:19;7.90;;;7.20;;
24813;SDS011;12904;50.088;11.414;2022-08-03T03:51:45;7.32;;;6.75;;
24813;SDS011;12904;50.088;11.414;2022-08-03T03:54:11;8.35;;;7.25;;
24813;SDS011;12904;50.088;11.414;2022-08-03T03:56:37;7.68;;;7.07;;
24813;SDS011;12904;50.088;11.414;2022-08-03T03:59:02;7.88;;;7.13;;
24813;SDS011;12904;50.088;11.414;2022-08-03T04:01:28;8.05;;;7.40;;
24813;SDS011;12904;50.088;11.414;2022-08-03T04:03:55;10.10;;;8.80;;
24813;SDS011;12904;50.088;11.414;2022-08-03T04:06:20;9.07;;;8.48;;
24813;SDS011;12904;50.088;11.414;2022-08-03T04:09:04;9.15;;;8.45;;
24813;SDS011;12904;50.088;11.414;2022-08-03T04:11:51;8.95;;;8.25;;
24813;SDS011;12904;50.088;11.414;2022-08-03T04:14:23;9.43;;;8.57;;
24813;SDS011;12904;50.088;11.414;2022-08-03T04:16:53;8.88;;;8.27;;
24813;SDS011;12904;50.088;11.414;2022-08-03T04:19:29;8.43;;;7.72;;
24813;SDS011;12904;50.088;11.414;2022-08-03T04:22:04;9.13;;;8.43;;
24813;SDS011;12904;50.088;11.414;2022-08-03T04:24:37;8.52;;;7.90;;
24813;SDS011;12904;50.088;11.414;2022-08-03T04:27:06;8.70;;;8.00;;
24813;SDS011;12904;50.088;11.414;2022-08-03T04:29:36;8.85;;;7.65;;
24813;SDS011;12904;50.088;11.414;2022-08-03T04:32:05;8.48;;;7.78;;
24813;SDS011;12904;50.088;11.414;2022-08-03T04:34:33;8.40;;;7.70;;
24813;SDS011;12904;50.088;11.414;2022-08-03T04:37:00;9.07;;;8.07;;
24813;SDS011;12904;50.088;11.414;2022-08-03T04:39:30;8.15;;;7.55;;
24813;SDS011;12904;50.088;11.414;2022-08-03T04:42:00;7.97;;;7.38;;
24813;SDS011;12904;50.088;11.414;2022-08-03T04:44:29;7.78;;;7.15;;
24813;SDS011;12904;50.088;11.414;2022-08-03T04:46:59;8.40;;;7.60;;
24813;SDS011;12904;50.088;11.414;2022-08-03T04:49:25;8.15;;;7.53;;
24813;SDS011;12904;50.088;11.414;2022-08-03T04:51:52;7.80;;;7.20;;
24813;SDS011;12904;50.088;11.414;2022-08-03T04:54:19;7.80;;;6.35;;
24813;SDS011;12904;50.088;11.414;2022-08-03T04:56:44;7.63;;;7.03;;
24813;SDS011;12904;50.088;11.414;2022-08-03T04:59:10;8.13;;;7.53;;
24813;SDS011;12904;50.088;11.414;2022-08-03T05:01:36;7.88;;;7.22;;
24813;SDS011;12904;50.088;11.414;2022-08-03T05:04:04;7.45;;;6.95;;
24813;SDS011;12904;50.088;11.414;2022-08-03T05:06:30;8.25;;;7.53;;
24813;SDS011;12904;50.088;11.414;2022-08-03T05:08:55;7.70;;;7.10;;
24813;SDS011;12904;50.088;11.414;2022-08-03T05:11:21;7.00;;;6.40;;
24813;SDS011;12904;50.088;11.414;2022-08-03T05:13:49;10.88;;;5.57;;
24813;SDS011;12904;50.088;11.414;2022-08-03T05:16:15;6.32;;;5.72;;
24813;SDS011;12904;50.088;11.414;2022-08-03T05:18:41;5.20;;;4.80;;
24813;SDS011;12904;50.088;11.414;2022-08-03T05:21:08;6.50;;;4.20;;
24813;SDS011;12904;50.088;11.414;2022-08-03T05:23:34;4.03;;;3.72;;
24813;SDS011;12904;50.088;11.414;2022-08-03T05:26:00;4.07;;;3.78;;
24813;SDS011;12904;50.088;11.414;2022-08-03T05:28:26;3.88;;;3.53;;
24813;SDS011;12904;50.088;11.414;2022-08-03T05:30:51;3.88;;;3.58;;
24813;SDS011;12904;50.088;11.414;2022-08-03T05:33:17;4.13;;;3.83;;
24813;SDS011;12904;50.088;11.414;2022-08-03T05:35:43;4.78;;;3.25;;
24813;SDS011;12904;50.088;11.414;2022-08-03T05:38:08;3.97;;;3.58;;
24813;SDS011;12904;50.088;11.414;2022-08-03T05:40:34;6.35;;;3.28;;
24813;SDS011;12904;50.088;11.414;2022-08-03T05:43:00;3.22;;;3.03;;
24813;SDS011;12904;50.088;11.414;2022-08-03T05:45:25;8.35;;;3.28;;
24813;SDS011;12904;50.088;11.414;2022-08-03T05:47:51;3.20;;;2.90;;
24813;SDS011;12904;50.088;11.414;2022-08-03T05:50:17;3.33;;;3.03;;
24813;SDS011;12904;50.088;11.414;2022-08-03T05:52:44;4.20;;;2.80;;
24813;SDS011;12904;50.088;11.414;2022-08-03T05:55:10;3.28;;;3.00;;
24813;SDS011;12904;50.088;11.414;2022-08-03T05:57:37;3.70;;;3.40;;
24813;SDS011;12904;50.088;11.414;2022-08-03T06:00:04;3.67;;;2.88;;
24813;SDS011;12904;50.088;11.414;2022-08-03T06:02:32;2.92;;;2.72;;
24813;SDS011;12904;50.088;11.414;2022-08-03T06:04:59;5.15;;;2.42;;
24813;SDS011;12904;50.088;11.414;2022-08-03T06:07:26;2.70;;;2.50;;
24813;SDS011;12904;50.088;11.414;2022-08-03T06:09:52;2.45;;;2.10;;
24813;SDS011;12904;50.088;11.414;2022-08-03T06:12:21;3.17;;;2.38;;
24813;SDS011;12904;50.088;11.414;2022-08-03T06:14:47;3.30;;;2.75;;
24813;SDS011;12904;50.088;11.414;2022-08-03T06:17:12;3.28;;;2.38;;
24813;SDS011;12904;50.088;11.414;2022-08-03T06:19:38;2.78;;;2.50;;
24813;SDS011;12904;50.088;11.414;2022-08-03T06:22:04;3.17;;;2.28;;
24813;SDS011;12904;50.088;11.414;2022-08-03T06:24:29;2.63;;;2.30;;
24813;SDS011;12904;50.088;11.414;2022-08-03T06:26:55;4.22;;;2.35;;
24813;SDS011;12904;50.088;11.414;2022-08-03T06:29:21;2.97;;;2.33;;
24813;SDS011;12904;50.088;11.414;2022-08-03T06:31:47;4.25;;;2.10;;
24813;SDS011;12904;50.088;11.414;2022-08-03T06:34:12;1.90;;;1.80;;
24813;SDS011;12904;50.088;11.414;2022-08-03T06:36:38;4.15;;;1.85;;
24813;SDS011;12904;50.088;11.414;2022-08-03T06:39:04;3.83;;;1.63;;
24813;SDS011;12904;50.088;11.414;2022-08-03T06:41:30;2.78;;;2.13;;
24813;SDS011;12904;50.088;11.414;2022-08-03T06:43:59;1.98;;;1.88;;
24813;SDS011;12904;50.088;11.414;2022-08-03T06:46:24;4.70;;;1.88;;
24813;SDS011;12904;50.088;11.414;2022-08-03T06:48:50;1.90;;;1.73;;
24813;SDS011;12904;50.088;11.414;2022-08-03T06:51:16;1.98;;;1.60;;
24813;SDS011;12904;50.088;11.414;2022-08-03T06:53:41;1.60;;;1.50;;
24813;SDS011;12904;50.088;11.414;2022-08-03T06:56:07;1.73;;;1.60;;
24813;SDS011;12904;50.088;11.414;2022-08-03T06:58:33;2.80;;;2.15;;
24813;SDS011;12904;50.088;11.414;2022-08-03T07:00:59;2.10;;;1.70;;
24813;SDS011;12904;50.088;11.414;2022-08-03T07:03:25;2.38;;;1.80;;
24813;SDS011;12904;50.088;11.414;2022-08-03T07:05:51;1.92;;;1.83;;
24813;SDS011;12904;50.088;11.414;2022-08-03T07:08:16;2.05;;;1.65;;
24813;SDS011;12904;50.088;11.414;2022-08-03T07:10:43;2.70;;;1.60;;
24813;SDS011;12904;50.088;11.414;2022-08-03T07:13:09;1.40;;;1.30;;
24813;SDS011;12904;50.088;11.414;2022-08-03T07:15:35;2.13;;;1.40;;
24813;SDS011;12904;50.088;11.414;2022-08-03T07:18:01;3.72;;;1.60;;
24813;SDS011;12904;50.088;11.414;2022-08-03T07:20:27;1.40;;;1.23;;
24813;SDS011;12904;50.088;11.414;2022-08-03T07:22:53;3.10;;;1.23;;
24813;SDS011;12904;50.088;11.414;2022-08-03T07:25:19;1.73;;;1.27;;
24813;SDS011;12904;50.088;11.414;2022-08-03T07:27:45;1.40;;;1.30;;
24813;SDS011;12904;50.088;11.414;2022-08-03T07:30:11;2.17;;;1.30;;
24813;SDS011;12904;50.088;11.414;2022-08-03T07:32:38;1.40;;;1.30;;
24813;SDS011;12904;50.088;11.414;2022-08-03T07:35:04;1.90;;;1.20;;
24813;SDS011;12904;50.088;11.414;2022-08-03T07:37:31;1.50;;;1.08;;
24813;SDS011;12904;50.088;11.414;2022-08-03T07:39:58;1.20;;;1.10;;
24813;SDS011;12904;50.088;11.414;2022-08-03T07:42:24;2.65;;;1.10;;
24813;SDS011;12904;50.088;11.414;2022-08-03T07:44:51;2.55;;;1.10;;
24813;SDS011;12904;50.088;11.414;2022-08-03T07:47:18;1.88;;;1.05;;
24813;SDS011;12904;50.088;11.414;2022-08-03T07:49:44;1.50;;;1.30;;
24813;SDS011;12904;50.088;11.414;2022-08-03T07:52:10;2.63;;;1.27;;
24813;SDS011;12904;50.088;11.414;2022-08-03T07:54:54;2.20;;;1.40;;
24813;SDS011;12904;50.088;11.414;2022-08-03T07:57:20;4.15;;;1.45;;
24813;SDS011;12904;50.088;11.414;2022-08-03T07:59:45;1.60;;;1.50;;
24813;SDS011;12904;50.088;11.414;2022-08-03T08:02:11;1.98;;;1.10;;
24813;SDS011;12904;50.088;11.414;2022-08-03T08:04:38;1.42;;;1.27;;
24813;SDS011;12904;50.088;11.414;2022-08-03T08:07:04;5.60;;;1.67;;
24813;SDS011;12904;50.088;11.414;2022-08-03T08:09:29;2.75;;;1.10;;
24813;SDS011;12904;50.088;11.414;2022-08-03T08:11:55;1.30;;;1.20;;
24813;SDS011;12904;50.088;11.414;2022-08-03T08:14:20;1.60;;;1.17;;
24813;SDS011;12904;50.088;11.414;2022-08-03T08:16:46;2.92;;;1.10;;
24813;SDS011;12904;50.088;11.414;2022-08-03T08:19:13;1.90;;;1.13;;
24813;SDS011;12904;50.088;11.414;2022-08-03T08:21:40;1.55;;;1.20;;
24813;SDS011;12904;50.088;11.414;2022-08-03T08:24:07;2.03;;;1.05;;
24813;SDS011;12904;50.088;11.414;2022-08-03T08:26:33;2.70;;;1.05;;
24813;SDS011;12904;50.088;11.414;2022-08-03T08:28:59;2.63;;;1.05;;
24813;SDS011;12904;50.088;11.414;2022-08-03T08:31:25;1.77;;;0.95;;
24813;SDS011;12904;50.088;11.414;2022-08-03T08:33:50;1.83;;;0.90;;
24813;SDS011;12904;50.088;11.414;2022-08-03T08:36:16;3.63;;;1.00;;
24813;SDS011;12904;50.088;11.414;2022-08-03T08:38:42;1.08;;;1.00;;
24813;SDS011;12904;50.088;11.414;2022-08-03T08:41:09;2.60;;;0.88;;
24813;SDS011;12904;50.088;11.414;2022-08-03T08:43:35;1.00;;;0.90;;
24813;SDS011;12904;50.088;11.414;2022-08-03T08:46:01;0.80;;;0.80;;
24813;SDS011;12904;50.088;11.414;2022-08-03T08:48:27;0.80;;;0.80;;
24813;SDS011;12904;50.088;11.414;2022-08-03T08:50:55;1.10;;;0.90;;
24813;SDS011;12904;50.088;11.414;2022-08-03T08:53:23;1.10;;;1.00;;
24813;SDS011;12904;50.088;11.414;2022-08-03T08:55:51;1.73;;;1.10;;
24813;SDS011;12904;50.088;11.414;2022-08-03T08:58:21;2.10;;;1.10;;
24813;SDS011;12904;50.088;11.414;2022-08-03T09:00:47;2.25;;;1.05;;
24813;SDS011;12904;50.088;11.414;2022-08-03T09:03:14;0.98;;;0.88;;
24813;SDS011;12904;50.088;11.414;2022-08-03T09:05:42;1.10;;;0.90;;
24813;SDS011;12904;50.088;11.414;2022-08-03T09:08:08;1.58;;;0.95;;
24813;SDS011;12904;50.088;11.414;2022-08-03T09:10:33;1.27;;;0.80;;
24813;SDS011;12904;50.088;11.414;2022-08-03T09:12:59;1.17;;;0.95;;
24813;SDS011;12904;50.088;11.414;2022-08-03T09:15:29;2.35;;;0.90;;
24813;SDS011;12904;50.088;11.414;2022-08-03T09:17:57;1.15;;;0.77;;
24813;SDS011;12904;50.088;11.414;2022-08-03T09:20:25;0.55;;;0.55;;
24813;SDS011;12904;50.088;11.414;2022-08-03T09:25:27;0.82;;;0.60;;
24813;SDS011;12904;50.088;11.414;2022-08-03T09:27:53;6.18;;;1.08;;
24813;SDS011;12904;50.088;11.414;2022-08-03T09:30:19;2.65;;;0.90;;
24813;SDS011;12904;50.088;11.414;2022-08-03T09:32:45;1.50;;;0.80;;
24813;SDS011;12904;50.088;11.414;2022-08-03T09:35:12;0.80;;;0.80;;
24813;SDS011;12904;50.088;11.414;2022-08-03T09:37:38;0.93;;;0.80;;
24813;SDS011;12904;50.088;11.414;2022-08-03T09:40:05;1.33;;;0.95;;
24813;SDS011;12904;50.088;11.414;2022-08-03T09:42:31;1.80;;;1.08;;
24813;SDS011;12904;50.088;11.414;2022-08-03T09:45:02;1.60;;;0.90;;
24813;SDS011;12904;50.088;11.414;2022-08-03T09:47:32;0.90;;;0.90;;
24813;SDS011;12904;50.088;11.414;2022-08-03T09:50:04;1.50;;;0.80;;
24813;SDS011;12904;50.088;11.414;2022-08-03T09:54:57;0.90;;;0.90;;
24813;SDS011;12904;50.088;11.414;2022-08-03T09:57:24;3.13;;;0.90;;
24813;SDS011;12904;50.088;11.414;2022-08-03T09:59:51;2.58;;;1.00;;
24813;SDS011;12904;50.088;11.414;2022-08-03T10:02:25;1.67;;;0.90;;
24813;SDS011;12904;50.088;11.414;2022-08-03T10:07:21;2.55;;;0.80;;
24813;SDS011;12904;50.088;11.414;2022-08-03T10:09:55;1.98;;;0.80;;
24813;SDS011;12904;50.088;11.414;2022-08-03T10:12:25;4.22;;;0.90;;
24813;SDS011;12904;50.088;11.414;2022-08-03T10:14:51;1.63;;;0.80;;
24813;SDS011;12904;50.088;11.414;2022-08-03T10:17:18;8.48;;;1.10;;
24813;SDS011;12904;50.088;11.414;2022-08-03T10:19:45;2.17;;;0.70;;
24813;SDS011;12904;50.088;11.414;2022-08-03T10:22:13;1.15;;;1.00;;
24813;SDS011;12904;50.088;11.414;2022-08-03T10:24:39;1.60;;;0.80;;
24813;SDS011;12904;50.088;11.414;2022-08-03T10:27:12;3.00;;;0.75;;
24813;SDS011;12904;50.088;11.414;2022-08-03T10:29:41;1.15;;;0.63;;
24813;SDS011;12904;50.088;11.414;2022-08-03T10:32:12;1.35;;;0.80;;
24813;SDS011;12904;50.088;11.414;2022-08-03T10:34:43;2.20;;;0.82;;
24813;SDS011;12904;50.088;11.414;2022-08-03T10:37:10;1.45;;;0.80;;
24813;SDS011;12904;50.088;11.414;2022-08-03T10:39:38;0.70;;;0.70;;
24813;SDS011;12904;50.088;11.414;2022-08-03T10:42:17;1.20;;;0.87;;
24813;SDS011;12904;50.088;11.414;2022-08-03T10:44:53;0.93;;;0.77;;
24813;SDS011;12904;50.088;11.414;2022-08-03T10:47:30;0.60;;;0.60;;
24813;SDS011;12904;50.088;11.414;2022-08-03T10:49:56;0.70;;;0.70;;
24813;SDS011;12904;50.088;11.414;2022-08-03T10:52:24;1.20;;;0.60;;
24813;SDS011;12904;50.088;11.414;2022-08-03T10:54:49;2.15;;;0.80;;
24813;SDS011;12904;50.088;11.414;2022-08-03T10:57:44;1.15;;;0.50;;
24813;SDS011;12904;50.088;11.414;2022-08-03T11:00:23;1.20;;;0.60;;
24813;SDS011;12904;50.088;11.414;2022-08-03T11:03:00;0.90;;;0.77;;
24813;SDS011;12904;50.088;11.414;2022-08-03T11:05:38;1.13;;;0.90;;
24813;SDS011;12904;50.088;11.414;2022-08-03T11:10:50;1.20;;;0.70;;
24813;SDS011;12904;50.088;11.414;2022-08-03T11:15:46;1.40;;;0.70;;
24813;SDS011;12904;50.088;11.414;2022-08-03T11:18:13;6.63;;;0.95;;
24813;SDS011;12904;50.088;11.414;2022-08-03T11:20:58;0.73;;;0.70;;
24813;SDS011;12904;50.088;11.414;2022-08-03T11:23:47;0.80;;;0.60;;
24813;SDS011;12904;50.088;11.414;2022-08-03T11:28:40;2.10;;;0.95;;
24813;SDS011;12904;50.088;11.414;2022-08-03T11:34:06;1.10;;;1.00;;
24813;SDS011;12904;50.088;11.414;2022-08-03T11:39:40;0.80;;;0.80;;
24813;SDS011;12904;50.088;11.414;2022-08-03T11:44:51;1.67;;;0.80;;
24813;SDS011;12904;50.088;11.414;2022-08-03T11:47:21;2.05;;;0.80;;
24813;SDS011;12904;50.088;11.414;2022-08-03T11:52:17;1.00;;;0.90;;
24813;SDS011;12904;50.088;11.414;2022-08-03T11:54:43;2.20;;;0.90;;
24813;SDS011;12904;50.088;11.414;2022-08-03T11:57:10;2.45;;;1.10;;
24813;SDS011;12904;50.088;11.414;2022-08-03T11:59:36;1.60;;;0.77;;
24813;SDS011;12904;50.088;11.414;2022-08-03T12:02:09;2.20;;;1.00;;
24813;SDS011;12904;50.088;11.414;2022-08-03T12:04:51;1.05;;;0.85;;
24813;SDS011;12904;50.088;11.414;2022-08-03T12:07:28;1.00;;;0.90;;
24813;SDS011;12904;50.088;11.414;2022-08-03T12:10:07;2.40;;;1.05;;
24813;SDS011;12904;50.088;11.414;2022-08-03T12:12:35;1.83;;;1.10;;
24813;SDS011;12904;50.088;11.414;2022-08-03T12:15:02;1.05;;;1.00;;
24813;SDS011;12904;50.088;11.414;2022-08-03T12:17:32;4.10;;;1.00;;
24813;SDS011;12904;50.088;11.414;2022-08-03T12:19:58;1.08;;;0.90;;
24813;SDS011;12904;50.088;11.414;2022-08-03T12:22:34;1.17;;;1.08;;
24813;SDS011;12904;50.088;11.414;2022-08-03T12:25:02;3.03;;;0.85;;
24813;SDS011;12904;50.088;11.414;2022-08-03T12:27:28;1.85;;;0.80;;
24813;SDS011;12904;50.088;11.414;2022-08-03T12:29:55;1.25;;;0.95;;
24813;SDS011;12904;50.088;11.414;2022-08-03T12:32:22;2.33;;;1.13;;
24813;SDS011;12904;50.088;11.414;2022-08-03T12:34:48;2.30;;;1.00;;
24813;SDS011;12904;50.088;11.414;2022-08-03T12:37:20;1.85;;;0.90;;
24813;SDS011;12904;50.088;11.414;2022-08-03T12:39:50;1.70;;;1.00;;
24813;SDS011;12904;50.088;11.414;2022-08-03T12:42:16;0.88;;;0.88;;
24813;SDS011;12904;50.088;11.414;2022-08-03T12:44:42;1.45;;;1.10;;
24813;SDS011;12904;50.088;11.414;2022-08-03T12:47:10;1.75;;;0.90;;
24813;SDS011;12904;50.088;11.414;2022-08-03T12:49:48;1.42;;;1.00;;
24813;SDS011;12904;50.088;11.414;2022-08-03T12:52:18;1.35;;;0.88;;
24813;SDS011;12904;50.088;11.414;2022-08-03T12:54:57;1.17;;;0.88;;
24813;SDS011;12904;50.088;11.414;2022-08-03T12:57:24;1.77;;;0.90;;
24813;SDS011;12904;50.088;11.414;2022-08-03T13:00:10;1.07;;;0.93;;
24813;SDS011;12904;50.088;11.414;2022-08-03T13:02:37;1.85;;;1.10;;
24813;SDS011;12904;50.088;11.414;2022-08-03T13:05:08;1.27;;;0.90;;
24813;SDS011;12904;50.088;11.414;2022-08-03T13:07:39;2.85;;;0.90;;
24813;SDS011;12904;50.088;11.414;2022-08-03T13:10:09;1.60;;;0.85;;
24813;SDS011;12904;50.088;11.414;2022-08-03T13:12:48;3.72;;;0.82;;
24813;SDS011;12904;50.088;11.414;2022-08-03T13:15:14;1.52;;;1.05;;
24813;SDS011;12904;50.088;11.414;2022-08-03T13:17:40;2.25;;;1.13;;
24813;SDS011;12904;50.088;11.414;2022-08-03T13:20:06;0.90;;;0.90;;
24813;SDS011;12904;50.088;11.414;2022-08-03T13:22:32;1.40;;;1.00;;
24813;SDS011;12904;50.088;11.414;2022-08-03T13:24:58;2.05;;;1.00;;
24813;SDS011;12904;50.088;11.414;2022-08-03T13:27:25;1.52;;;0.73;;
24813;SDS011;12904;50.088;11.414;2022-08-03T13:29:52;1.08;;;0.77;;
24813;SDS011;12904;50.088;11.414;2022-08-03T13:32:19;1.05;;;0.88;;
24813;SDS011;12904;50.088;11.414;2022-08-03T13:34:45;2.40;;;1.20;;
24813;SDS011;12904;50.088;11.414;2022-08-03T13:37:11;1.20;;;1.00;;
24813;SDS011;12904;50.088;11.414;2022-08-03T13:39:37;1.35;;;0.90;;
24813;SDS011;12904;50.088;11.414;2022-08-03T13:42:03;1.17;;;1.08;;
24813;SDS011;12904;50.088;11.414;2022-08-03T13:44:29;1.05;;;0.82;;
24813;SDS011;12904;50.088;11.414;2022-08-03T13:47:00;2.00;;;1.27;;
24813;SDS011;12904;50.088;11.414;2022-08-03T13:49:26;2.95;;;1.13;;
24813;SDS011;12904;50.088;11.414;2022-08-03T13:51:53;1.60;;;0.95;;
24813;SDS011;12904;50.088;11.414;2022-08-03T13:54:20;3.85;;;0.80;;
24813;SDS011;12904;50.088;11.414;2022-08-03T13:56:45;1.35;;;1.13;;
24813;SDS011;12904;50.088;11.414;2022-08-03T13:59:22;2.35;;;1.05;;
24813;SDS011;12904;50.088;11.414;2022-08-03T14:01:49;1.02;;;0.93;;
24813;SDS011;12904;50.088;11.414;2022-08-03T14:04:16;0.98;;;0.90;;
24813;SDS011;12904;50.088;11.414;2022-08-03T14:06:43;1.92;;;1.20;;
24813;SDS011;12904;50.088;11.414;2022-08-03T14:09:09;2.90;;;1.20;;
24813;SDS011;12904;50.088;11.414;2022-08-03T14:11:36;1.20;;;0.90;;
24813;SDS011;12904;50.088;11.414;2022-08-03T14:14:01;1.58;;;0.85;;
24813;SDS011;12904;50.088;11.414;2022-08-03T14:16:27;1.20;;;0.80;;
24813;SDS011;12904;50.088;11.414;2022-08-03T14:18:53;1.23;;;1.00;;
24813;SDS011;12904;50.088;11.414;2022-08-03T14:21:18;2.60;;;0.93;;
24813;SDS011;12904;50.088;11.414;2022-08-03T14:23:44;1.52;;;1.10;;
24813;SDS011;12904;50.088;11.414;2022-08-03T14:26:09;2.25;;;1.20;;
24813;SDS011;12904;50.088;11.414;2022-08-03T14:28:36;2.17;;;0.90;;
24813;SDS011;12904;50.088;11.414;2022-08-03T14:31:02;1.30;;;0.90;;
24813;SDS011;12904;50.088;11.414;2022-08-03T14:33:28;1.65;;;1.00;;
24813;SDS011;12904;50.088;11.414;2022-08-03T14:35:53;1.30;;;0.95;;
24813;SDS011;12904;50.088;11.414;2022-08-03T14:38:19;3.70;;;0.90;;
24813;SDS011;12904;50.088;11.414;2022-08-03T14:40:46;1.42;;;0.80;;
24813;SDS011;12904;50.088;11.414;2022-08-03T14:43:12;1.15;;;0.80;;
24813;SDS011;12904;50.088;11.414;2022-08-03T14:45:38;2.38;;;1.00;;
24813;SDS011;12904;50.088;11.414;2022-08-03T14:48:05;2.15;;;0.80;;
24813;SDS011;12904;50.088;11.414;2022-08-03T14:50:30;2.05;;;1.00;;
24813;SDS011;12904;50.088;11.414;2022-08-03T14:52:56;0.88;;;0.88;;
24813;SDS011;12904;50.088;11.414;2022-08-03T14:55:22;1.45;;;0.95;;
24813;SDS011;12904;50.088;11.414;2022-08-03T14:57:48;1.67;;;1.05;;
24813;SDS011;12904;50.088;11.414;2022-08-03T15:00:14;3.45;;;0.90;;
24813;SDS011;12904;50.088;11.414;2022-08-03T15:02:40;1.05;;;0.90;;
24813;SDS011;12904;50.088;11.414;2022-08-03T15:05:06;0.85;;;0.82;;
24813;SDS011;12904;50.088;11.414;2022-08-03T15:07:32;1.10;;;0.98;;
24813;SDS011;12904;50.088;11.414;2022-08-03T15:09:57;1.80;;;1.00;;
24813;SDS011;12904;50.088;11.414;2022-08-03T15:12:23;1.10;;;1.00;;
24813;SDS011;12904;50.088;11.414;2022-08-03T15:14:49;1.40;;;0.90;;
24813;SDS011;12904;50.088;11.414;2022-08-03T15:17:15;1.20;;;0.93;;